sensor_id;sensor_type;location;lat;lon;timestamp;temperature;humidity
25328;DHT22;13279;51.300;12.394;2023-08-24T00:02:16;18.50;99.90
25328;DHT22;13279;51.300;12.394;2023-08-24T00:04:43;18.40;99.90
25328;DHT22;13279;51.300;12.394;2023-08-24T00:07:12;18.40;99.90
25328;DHT22;13279;51.300;12.394;2023-08-24T00:09:39;18.40;99.90
25328;DHT22;13279;51.300;12.394;2023-08-24T00:12:07;18.30;99.90
25328;DHT22;13279;51.300;12.394;2023-08-24T00:14:34;18.30;99.90
25328;DHT22;13279;51.300;12.394;2023-08-24T00:17:02;18.20;99.90
25328;DHT22;13279;51.300;12.394;2023-08-24T00:19:30;18.10;99.90
25328;DHT22;13279;51.300;12.394;2023-08-24T00:21:58;18.10;99.90
25328;DHT22;13279;51.300;12.394;2023-08-24T00:24:26;18.10;99.90
25328;DHT22;13279;51.300;12.394;2023-08-24T00:26:54;18.00;99.90
25328;DHT22;13279;51.300;12.394;2023-08-24T00:29:21;18.00;99.90
25328;DHT22;13279;51.300;12.394;2023-08-24T00:31:48;18.00;99.90
25328;DHT22;13279;51.300;12.394;2023-08-24T00:34:16;18.10;99.90
25328;DHT22;13279;51.300;12.394;2023-08-24T00:36:44;18.10;99.90
25328;DHT22;13279;51.300;12.394;2023-08-24T00:39:11;18.10;99.90
25328;DHT22;13279;51.300;12.394;2023-08-24T00:41:40;18.10;99.90
25328;DHT22;13279;51.300;12.394;2023-08-24T00:44:08;18.10;99.90
25328;DHT22;13279;51.300;12.394;2023-08-24T00:46:35;18.10;99.90
25328;DHT22;13279;51.300;12.394;2023-08-24T00:49:03;18.10;99.90
25328;DHT22;13279;51.300;12.394;2023-08-24T00:51:32;18.10;99.90
25328;DHT22;13279;51.300;12.394;2023-08-24T00:53:59;18.00;99.90
25328;DHT22;13279;51.300;12.394;2023-08-24T00:56:28;18.00;99.90
25328;DHT22;13279;51.300;12.394;2023-08-24T00:58:57;18.10;99.90
25328;DHT22;13279;51.300;12.394;2023-08-24T01:01:27;18.10;99.90
25328;DHT22;13279;51.300;12.394;2023-08-24T01:03:55;18.10;99.90
25328;DHT22;13279;51.300;12.394;2023-08-24T01:06:22;18.10;99.90
25328;DHT22;13279;51.300;12.394;2023-08-24T01:16:29;18.10;99.90
25328;DHT22;13279;51.300;12.394;2023-08-24T01:18:58;18.00;99.90
25328;DHT22;13279;51.300;12.394;2023-08-24T01:21:27;18.00;99.90
25328;DHT22;13279;51.300;12.394;2023-08-24T01:24:02;18.00;99.90
25328;DHT22;13279;51.300;12.394;2023-08-24T01:26:35;18.00;99.90
25328;DHT22;13279;51.300;12.394;2023-08-24T01:29:04;18.00;99.90
25328;DHT22;13279;51.300;12.394;2023-08-24T01:31:32;17.90;99.90
25328;DHT22;13279;51.300;12.394;2023-08-24T01:33:59;17.90;99.90
25328;DHT22;13279;51.300;12.394;2023-08-24T01:36:28;18.00;99.90
25328;DHT22;13279;51.300;12.394;2023-08-24T01:39:02;18.00;99.90
25328;DHT22;13279;51.300;12.394;2023-08-24T01:41:36;18.00;99.90
25328;DHT22;13279;51.300;12.394;2023-08-24T01:44:06;18.00;99.90
25328;DHT22;13279;51.300;12.394;2023-08-24T01:46:34;18.00;99.90
25328;DHT22;13279;51.300;12.394;2023-08-24T01:49:05;18.00;99.90
25328;DHT22;13279;51.300;12.394;2023-08-24T01:51:34;17.90;99.90
25328;DHT22;13279;51.300;12.394;2023-08-24T01:54:02;17.90;99.90
25328;DHT22;13279;51.300;12.394;2023-08-24T01:56:29;17.90;99.90
25328;DHT22;13279;51.300;12.394;2023-08-24T01:58:59;17.90;99.90
25328;DHT22;13279;51.300;12.394;2023-08-24T02:01:27;17.90;99.90
25328;DHT22;13279;51.300;12.394;2023-08-24T02:03:55;17.80;99.90
25328;DHT22;13279;51.300;12.394;2023-08-24T02:06:23;17.80;99.90
25328;DHT22;13279;51.300;12.394;2023-08-24T02:08:50;17.80;99.90
25328;DHT22;13279;51.300;12.394;2023-08-24T02:11:17;17.80;99.90
25328;DHT22;13279;51.300;12.394;2023-08-24T02:13:45;17.80;99.90
25328;DHT22;13279;51.300;12.394;2023-08-24T02:16:13;17.90;99.90
25328;DHT22;13279;51.300;12.394;2023-08-24T02:18:41;17.80;99.90
25328;DHT22;13279;51.300;12.394;2023-08-24T02:21:09;17.80;99.90
25328;DHT22;13279;51.300;12.394;2023-08-24T02:23:37;17.80;99.90
25328;DHT22;13279;51.300;12.394;2023-08-24T02:26:05;17.80;99.90
25328;DHT22;13279;51.300;12.394;2023-08-24T02:28:32;17.80;99.90
25328;DHT22;13279;51.300;12.394;2023-08-24T02:31:00;17.80;99.90
25328;DHT22;13279;51.300;12.394;2023-08-24T02:33:29;17.80;99.90
25328;DHT22;13279;51.300;12.394;2023-08-24T02:35:57;17.80;99.90
25328;DHT22;13279;51.300;12.394;2023-08-24T02:38:24;17.80;99.90
25328;DHT22;13279;51.300;12.394;2023-08-24T02:41:01;17.70;99.90
25328;DHT22;13279;51.300;12.394;2023-08-24T02:43:30;17.80;99.90
25328;DHT22;13279;51.300;12.394;2023-08-24T02:46:00;17.70;99.90
25328;DHT22;13279;51.300;12.394;2023-08-24T02:48:30;17.70;99.90
25328;DHT22;13279;51.300;12.394;2023-08-24T02:50:58;17.70;99.90
25328;DHT22;13279;51.300;12.394;2023-08-24T02:53:27;17.70;99.90
25328;DHT22;13279;51.300;12.394;2023-08-24T02:55:54;17.70;99.90
25328;DHT22;13279;51.300;12.394;2023-08-24T02:58:21;17.70;99.90
25328;DHT22;13279;51.300;12.394;2023-08-24T03:00:49;17.60;99.90
25328;DHT22;13279;51.300;12.394;2023-08-24T03:03:17;17.60;99.90
25328;DHT22;13279;51.300;12.394;2023-08-24T03:05:54;17.60;99.90
25328;DHT22;13279;51.300;12.394;2023-08-24T03:08:22;17.60;99.90
25328;DHT22;13279;51.300;12.394;2023-08-24T03:10:49;17.60;99.90
25328;DHT22;13279;51.300;12.394;2023-08-24T03:13:17;17.60;99.90
25328;DHT22;13279;51.300;12.394;2023-08-24T03:15:44;17.50;99.90
25328;DHT22;13279;51.300;12.394;2023-08-24T03:18:12;17.50;99.90
25328;DHT22;13279;51.300;12.394;2023-08-24T03:20:40;17.50;99.90
25328;DHT22;13279;51.300;12.394;2023-08-24T03:23:09;17.40;99.90
25328;DHT22;13279;51.300;12.394;2023-08-24T03:25:37;17.40;99.90
25328;DHT22;13279;51.300;12.394;2023-08-24T03:28:08;17.40;99.90
25328;DHT22;13279;51.300;12.394;2023-08-24T03:30:36;17.30;99.90
25328;DHT22;13279;51.300;12.394;2023-08-24T03:33:04;17.30;99.90
25328;DHT22;13279;51.300;12.394;2023-08-24T03:35:32;17.30;99.90
25328;DHT22;13279;51.300;12.394;2023-08-24T03:38:00;17.30;99.90
25328;DHT22;13279;51.300;12.394;2023-08-24T03:40:29;17.20;99.90
25328;DHT22;13279;51.300;12.394;2023-08-24T03:42:57;17.20;99.90
25328;DHT22;13279;51.300;12.394;2023-08-24T03:45:24;17.20;99.90
25328;DHT22;13279;51.300;12.394;2023-08-24T03:47:52;17.20;99.90
25328;DHT22;13279;51.300;12.394;2023-08-24T03:50:19;17.20;99.90
25328;DHT22;13279;51.300;12.394;2023-08-24T03:52:49;17.20;99.90
25328;DHT22;13279;51.300;12.394;2023-08-24T03:55:16;17.20;99.90
25328;DHT22;13279;51.300;12.394;2023-08-24T03:57:45;17.10;99.90
25328;DHT22;13279;51.300;12.394;2023-08-24T04:00:13;17.10;99.90
25328;DHT22;13279;51.300;12.394;2023-08-24T04:02:41;17.10;99.90
25328;DHT22;13279;51.300;12.394;2023-08-24T04:05:12;17.10;99.90
25328;DHT22;13279;51.300;12.394;2023-08-24T04:07:40;17.10;99.90
25328;DHT22;13279;51.300;12.394;2023-08-24T04:10:08;17.10;99.90
25328;DHT22;13279;51.300;12.394;2023-08-24T04:12:36;17.20;99.90
25328;DHT22;13279;51.300;12.394;2023-08-24T04:15:06;17.20;99.90
25328;DHT22;13279;51.300;12.394;2023-08-24T04:17:34;17.20;99.90
25328;DHT22;13279;51.300;12.394;2023-08-24T04:20:01;17.20;99.90
25328;DHT22;13279;51.300;12.394;2023-08-24T04:22:30;17.10;99.90
25328;DHT22;13279;51.300;12.394;2023-08-24T04:24:57;17.10;99.90
25328;DHT22;13279;51.300;12.394;2023-08-24T04:27:25;17.10;99.90
25328;DHT22;13279;51.300;12.394;2023-08-24T04:29:52;17.20;99.90
25328;DHT22;13279;51.300;12.394;2023-08-24T04:32:22;17.20;99.90
25328;DHT22;13279;51.300;12.394;2023-08-24T04:34:49;17.20;99.90
25328;DHT22;13279;51.300;12.394;2023-08-24T04:37:17;17.20;99.90
25328;DHT22;13279;51.300;12.394;2023-08-24T04:39:44;17.20;99.90
25328;DHT22;13279;51.300;12.394;2023-08-24T04:42:12;17.20;99.90
25328;DHT22;13279;51.300;12.394;2023-08-24T04:44:42;17.30;99.90
25328;DHT22;13279;51.300;12.394;2023-08-24T04:47:13;17.30;99.90
25328;DHT22;13279;51.300;12.394;2023-08-24T04:49:44;17.30;99.90
25328;DHT22;13279;51.300;12.394;2023-08-24T04:52:12;17.30;99.90
25328;DHT22;13279;51.300;12.394;2023-08-24T04:54:42;17.30;99.90
25328;DHT22;13279;51.300;12.394;2023-08-24T04:57:10;17.30;99.90
25328;DHT22;13279;51.300;12.394;2023-08-24T04:59:37;17.40;99.90
25328;DHT22;13279;51.300;12.394;2023-08-24T05:02:05;17.40;99.90
25328;DHT22;13279;51.300;12.394;2023-08-24T05:04:32;17.30;99.90
25328;DHT22;13279;51.300;12.394;2023-08-24T05:07:01;17.30;99.90
25328;DHT22;13279;51.300;12.394;2023-08-24T05:09:28;17.30;99.90
25328;DHT22;13279;51.300;12.394;2023-08-24T05:11:56;17.30;99.90
25328;DHT22;13279;51.300;12.394;2023-08-24T05:14:23;17.30;99.90
25328;DHT22;13279;51.300;12.394;2023-08-24T05:16:51;17.30;99.90
25328;DHT22;13279;51.300;12.394;2023-08-24T05:19:18;17.30;99.90
25328;DHT22;13279;51.300;12.394;2023-08-24T05:21:48;17.30;99.90
25328;DHT22;13279;51.300;12.394;2023-08-24T05:24:18;17.40;99.90
25328;DHT22;13279;51.300;12.394;2023-08-24T05:26:45;17.40;99.90
25328;DHT22;13279;51.300;12.394;2023-08-24T05:29:13;17.40;99.90
25328;DHT22;13279;51.300;12.394;2023-08-24T05:31:40;17.40;99.90
25328;DHT22;13279;51.300;12.394;2023-08-24T05:34:07;17.50;99.90
25328;DHT22;13279;51.300;12.394;2023-08-24T05:36:35;17.60;99.90
25328;DHT22;13279;51.300;12.394;2023-08-24T05:39:02;17.60;99.90
25328;DHT22;13279;51.300;12.394;2023-08-24T05:41:31;17.60;99.90
25328;DHT22;13279;51.300;12.394;2023-08-24T05:43:59;17.60;99.90
25328;DHT22;13279;51.300;12.394;2023-08-24T05:46:26;17.70;99.90
25328;DHT22;13279;51.300;12.394;2023-08-24T05:48:53;17.70;99.90
25328;DHT22;13279;51.300;12.394;2023-08-24T05:51:22;17.80;99.90
25328;DHT22;13279;51.300;12.394;2023-08-24T05:53:49;17.90;99.90
25328;DHT22;13279;51.300;12.394;2023-08-24T05:56:21;18.00;99.90
25328;DHT22;13279;51.300;12.394;2023-08-24T05:58:50;18.00;99.90
25328;DHT22;13279;51.300;12.394;2023-08-24T06:01:18;18.10;99.90
25328;DHT22;13279;51.300;12.394;2023-08-24T06:03:45;18.10;99.90
25328;DHT22;13279;51.300;12.394;2023-08-24T06:06:12;18.20;99.90
25328;DHT22;13279;51.300;12.394;2023-08-24T06:08:40;18.30;99.90
25328;DHT22;13279;51.300;12.394;2023-08-24T06:11:08;18.40;99.90
25328;DHT22;13279;51.300;12.394;2023-08-24T06:13:35;18.50;99.90
25328;DHT22;13279;51.300;12.394;2023-08-24T06:16:04;18.70;99.90
25328;DHT22;13279;51.300;12.394;2023-08-24T06:18:31;19.00;99.90
25328;DHT22;13279;51.300;12.394;2023-08-24T06:20:59;19.20;99.90
25328;DHT22;13279;51.300;12.394;2023-08-24T06:23:26;19.50;99.90
25328;DHT22;13279;51.300;12.394;2023-08-24T06:25:54;19.80;99.90
25328;DHT22;13279;51.300;12.394;2023-08-24T06:28:21;20.10;99.90
25328;DHT22;13279;51.300;12.394;2023-08-24T06:30:48;20.40;99.90
25328;DHT22;13279;51.300;12.394;2023-08-24T06:33:18;20.70;99.90
25328;DHT22;13279;51.300;12.394;2023-08-24T06:35:46;20.80;99.90
25328;DHT22;13279;51.300;12.394;2023-08-24T06:38:13;21.00;99.90
25328;DHT22;13279;51.300;12.394;2023-08-24T06:40:41;21.30;99.90
25328;DHT22;13279;51.300;12.394;2023-08-24T06:43:08;21.50;99.90
25328;DHT22;13279;51.300;12.394;2023-08-24T06:45:36;21.80;99.90
25328;DHT22;13279;51.300;12.394;2023-08-24T06:48:03;22.10;99.90
25328;DHT22;13279;51.300;12.394;2023-08-24T06:50:34;22.40;99.90
25328;DHT22;13279;51.300;12.394;2023-08-24T06:53:02;22.60;99.90
25328;DHT22;13279;51.300;12.394;2023-08-24T06:55:30;22.60;99.90
25328;DHT22;13279;51.300;12.394;2023-08-24T06:57:57;22.70;99.90
25328;DHT22;13279;51.300;12.394;2023-08-24T07:00:25;22.90;99.90
25328;DHT22;13279;51.300;12.394;2023-08-24T07:02:52;23.00;99.90
25328;DHT22;13279;51.300;12.394;2023-08-24T07:05:20;23.00;99.90
25328;DHT22;13279;51.300;12.394;2023-08-24T07:07:49;23.20;99.90
25328;DHT22;13279;51.300;12.394;2023-08-24T07:10:17;23.40;99.90
25328;DHT22;13279;51.300;12.394;2023-08-24T07:12:44;23.40;99.90
25328;DHT22;13279;51.300;12.394;2023-08-24T07:15:12;23.40;99.90
25328;DHT22;13279;51.300;12.394;2023-08-24T07:17:39;23.50;99.90
25328;DHT22;13279;51.300;12.394;2023-08-24T07:20:08;23.60;99.90
25328;DHT22;13279;51.300;12.394;2023-08-24T07:22:35;23.60;99.90
25328;DHT22;13279;51.300;12.394;2023-08-24T07:25:05;23.70;99.90
25328;DHT22;13279;51.300;12.394;2023-08-24T07:27:33;23.70;99.90
25328;DHT22;13279;51.300;12.394;2023-08-24T07:30:01;23.70;99.90
25328;DHT22;13279;51.300;12.394;2023-08-24T07:32:31;23.90;99.90
25328;DHT22;13279;51.300;12.394;2023-08-24T07:34:59;23.90;99.90
25328;DHT22;13279;51.300;12.394;2023-08-24T07:37:27;24.00;99.90
25328;DHT22;13279;51.300;12.394;2023-08-24T07:39:54;24.00;99.90
25328;DHT22;13279;51.300;12.394;2023-08-24T07:42:23;24.10;99.90
25328;DHT22;13279;51.300;12.394;2023-08-24T07:44:50;24.10;99.90
25328;DHT22;13279;51.300;12.394;2023-08-24T07:47:18;24.20;99.90
25328;DHT22;13279;51.300;12.394;2023-08-24T07:49:45;24.30;99.90
25328;DHT22;13279;51.300;12.394;2023-08-24T07:52:12;24.60;99.90
25328;DHT22;13279;51.300;12.394;2023-08-24T07:54:39;24.70;99.90
25328;DHT22;13279;51.300;12.394;2023-08-24T07:57:07;24.90;99.90
25328;DHT22;13279;51.300;12.394;2023-08-24T07:59:36;25.00;99.90
25328;DHT22;13279;51.300;12.394;2023-08-24T08:02:03;24.90;99.90
25328;DHT22;13279;51.300;12.394;2023-08-24T08:04:31;25.00;99.90
25328;DHT22;13279;51.300;12.394;2023-08-24T08:06:58;25.20;99.90
25328;DHT22;13279;51.300;12.394;2023-08-24T08:09:25;25.30;99.90
25328;DHT22;13279;51.300;12.394;2023-08-24T08:11:53;25.50;99.90
25328;DHT22;13279;51.300;12.394;2023-08-24T08:14:20;25.70;99.90
25328;DHT22;13279;51.300;12.394;2023-08-24T08:16:49;26.00;99.90
25328;DHT22;13279;51.300;12.394;2023-08-24T08:19:16;26.10;99.90
25328;DHT22;13279;51.300;12.394;2023-08-24T08:21:45;26.20;99.90
25328;DHT22;13279;51.300;12.394;2023-08-24T08:24:12;26.00;99.90
25328;DHT22;13279;51.300;12.394;2023-08-24T08:26:40;26.00;99.90
25328;DHT22;13279;51.300;12.394;2023-08-24T08:29:07;26.10;99.90
25328;DHT22;13279;51.300;12.394;2023-08-24T08:31:34;26.10;99.90
25328;DHT22;13279;51.300;12.394;2023-08-24T08:34:03;25.90;99.90
25328;DHT22;13279;51.300;12.394;2023-08-24T08:36:31;25.90;99.90
25328;DHT22;13279;51.300;12.394;2023-08-24T08:38:58;26.10;99.90
25328;DHT22;13279;51.300;12.394;2023-08-24T08:41:31;26.40;99.90
25328;DHT22;13279;51.300;12.394;2023-08-24T08:44:04;26.70;99.90
25328;DHT22;13279;51.300;12.394;2023-08-24T08:46:32;26.90;99.90
25328;DHT22;13279;51.300;12.394;2023-08-24T08:49:00;27.00;99.90
25328;DHT22;13279;51.300;12.394;2023-08-24T08:51:30;27.20;99.90
25328;DHT22;13279;51.300;12.394;2023-08-24T08:53:57;27.30;99.90
25328;DHT22;13279;51.300;12.394;2023-08-24T08:56:25;27.20;99.90
25328;DHT22;13279;51.300;12.394;2023-08-24T08:58:54;27.10;99.90
25328;DHT22;13279;51.300;12.394;2023-08-24T09:01:24;26.70;99.90
25328;DHT22;13279;51.300;12.394;2023-08-24T09:03:52;26.60;99.90
25328;DHT22;13279;51.300;12.394;2023-08-24T09:06:20;26.60;99.90
25328;DHT22;13279;51.300;12.394;2023-08-24T09:08:50;26.60;99.90
25328;DHT22;13279;51.300;12.394;2023-08-24T09:11:17;26.70;99.90
25328;DHT22;13279;51.300;12.394;2023-08-24T09:13:46;26.60;99.90
25328;DHT22;13279;51.300;12.394;2023-08-24T09:16:14;26.30;99.90
25328;DHT22;13279;51.300;12.394;2023-08-24T09:18:45;26.40;99.90
25328;DHT22;13279;51.300;12.394;2023-08-24T09:21:14;26.40;99.90
25328;DHT22;13279;51.300;12.394;2023-08-24T09:23:43;26.40;99.90
25328;DHT22;13279;51.300;12.394;2023-08-24T09:26:13;26.50;99.90
25328;DHT22;13279;51.300;12.394;2023-08-24T09:28:42;26.60;99.90
25328;DHT22;13279;51.300;12.394;2023-08-24T09:31:12;26.70;99.90
25328;DHT22;13279;51.300;12.394;2023-08-24T09:33:43;26.70;99.90
25328;DHT22;13279;51.300;12.394;2023-08-24T09:36:14;26.80;99.90
25328;DHT22;13279;51.300;12.394;2023-08-24T09:38:46;27.00;99.90
25328;DHT22;13279;51.300;12.394;2023-08-24T09:41:17;27.00;99.90
25328;DHT22;13279;51.300;12.394;2023-08-24T09:43:44;27.00;99.90
25328;DHT22;13279;51.300;12.394;2023-08-24T09:46:12;27.00;99.90
25328;DHT22;13279;51.300;12.394;2023-08-24T09:48:53;26.80;99.90
25328;DHT22;13279;51.300;12.394;2023-08-24T09:51:23;26.70;99.90
25328;DHT22;13279;51.300;12.394;2023-08-24T09:53:57;26.80;99.90
25328;DHT22;13279;51.300;12.394;2023-08-24T09:56:28;27.10;99.90
25328;DHT22;13279;51.300;12.394;2023-08-24T09:58:58;27.20;99.90
25328;DHT22;13279;51.300;12.394;2023-08-24T10:01:27;27.30;99.90
25328;DHT22;13279;51.300;12.394;2023-08-24T10:03:56;27.30;99.90
25328;DHT22;13279;51.300;12.394;2023-08-24T10:06:27;27.10;99.90
25328;DHT22;13279;51.300;12.394;2023-08-24T10:08:58;27.10;99.90
25328;DHT22;13279;51.300;12.394;2023-08-24T10:11:34;27.40;99.90
25328;DHT22;13279;51.300;12.394;2023-08-24T10:14:08;27.60;99.90
25328;DHT22;13279;51.300;12.394;2023-08-24T10:16:39;27.80;99.90
25328;DHT22;13279;51.300;12.394;2023-08-24T10:19:07;27.70;99.90
25328;DHT22;13279;51.300;12.394;2023-08-24T10:21:36;27.50;99.90
25328;DHT22;13279;51.300;12.394;2023-08-24T10:24:05;27.30;99.90
25328;DHT22;13279;51.300;12.394;2023-08-24T10:26:35;27.30;99.90
25328;DHT22;13279;51.300;12.394;2023-08-24T10:29:03;27.40;99.90
25328;DHT22;13279;51.300;12.394;2023-08-24T10:31:31;27.40;99.90
25328;DHT22;13279;51.300;12.394;2023-08-24T10:33:59;27.60;99.90
25328;DHT22;13279;51.300;12.394;2023-08-24T10:36:28;27.50;99.90
25328;DHT22;13279;51.300;12.394;2023-08-24T10:38:56;27.50;99.90
25328;DHT22;13279;51.300;12.394;2023-08-24T10:41:26;27.50;99.90
25328;DHT22;13279;51.300;12.394;2023-08-24T10:44:05;27.50;99.90
25328;DHT22;13279;51.300;12.394;2023-08-24T10:46:35;27.50;99.90
25328;DHT22;13279;51.300;12.394;2023-08-24T10:49:04;27.60;99.90
25328;DHT22;13279;51.300;12.394;2023-08-24T10:51:32;27.90;99.90
25328;DHT22;13279;51.300;12.394;2023-08-24T10:54:09;28.10;99.90
25328;DHT22;13279;51.300;12.394;2023-08-24T10:56:38;28.20;99.90
25328;DHT22;13279;51.300;12.394;2023-08-24T10:59:14;28.20;99.90
25328;DHT22;13279;51.300;12.394;2023-08-24T11:01:43;28.30;99.90
25328;DHT22;13279;51.300;12.394;2023-08-24T11:04:21;28.30;99.90
25328;DHT22;13279;51.300;12.394;2023-08-24T11:06:53;28.20;99.90
25328;DHT22;13279;51.300;12.394;2023-08-24T11:09:22;28.00;99.90
25328;DHT22;13279;51.300;12.394;2023-08-24T11:11:57;27.90;99.90
25328;DHT22;13279;51.300;12.394;2023-08-24T11:14:27;28.00;99.90
25328;DHT22;13279;51.300;12.394;2023-08-24T11:16:57;28.00;99.90
25328;DHT22;13279;51.300;12.394;2023-08-24T11:19:26;27.90;99.90
25328;DHT22;13279;51.300;12.394;2023-08-24T11:21:54;28.00;99.90
25328;DHT22;13279;51.300;12.394;2023-08-24T11:24:22;28.00;99.90
25328;DHT22;13279;51.300;12.394;2023-08-24T11:26:50;27.80;99.90
25328;DHT22;13279;51.300;12.394;2023-08-24T11:29:18;27.80;99.90
25328;DHT22;13279;51.300;12.394;2023-08-24T11:31:47;27.80;99.90
25328;DHT22;13279;51.300;12.394;2023-08-24T11:34:15;27.70;99.90
25328;DHT22;13279;51.300;12.394;2023-08-24T11:36:45;27.80;99.90
25328;DHT22;13279;51.300;12.394;2023-08-24T11:39:17;27.80;99.90
25328;DHT22;13279;51.300;12.394;2023-08-24T11:41:46;27.80;99.90
25328;DHT22;13279;51.300;12.394;2023-08-24T11:44:23;27.70;99.90
25328;DHT22;13279;51.300;12.394;2023-08-24T11:46:53;27.80;99.90
25328;DHT22;13279;51.300;12.394;2023-08-24T11:49:23;28.00;99.90
25328;DHT22;13279;51.300;12.394;2023-08-24T11:51:51;28.00;99.90
25328;DHT22;13279;51.300;12.394;2023-08-24T11:54:19;28.00;99.90
25328;DHT22;13279;51.300;12.394;2023-08-24T11:56:46;28.10;99.90
25328;DHT22;13279;51.300;12.394;2023-08-24T11:59:14;28.20;99.90
25328;DHT22;13279;51.300;12.394;2023-08-24T12:01:42;28.20;99.90
25328;DHT22;13279;51.300;12.394;2023-08-24T12:04:12;28.20;99.90
25328;DHT22;13279;51.300;12.394;2023-08-24T12:06:40;28.10;99.90
25328;DHT22;13279;51.300;12.394;2023-08-24T12:09:07;28.20;99.90
25328;DHT22;13279;51.300;12.394;2023-08-24T12:11:36;28.20;99.90
25328;DHT22;13279;51.300;12.394;2023-08-24T12:14:05;28.50;99.90
25328;DHT22;13279;51.300;12.394;2023-08-24T12:16:36;28.70;99.90
25328;DHT22;13279;51.300;12.394;2023-08-24T12:19:07;28.80;99.90
25328;DHT22;13279;51.300;12.394;2023-08-24T12:21:36;29.10;99.90
25328;DHT22;13279;51.300;12.394;2023-08-24T12:24:04;29.30;99.90
25328;DHT22;13279;51.300;12.394;2023-08-24T12:26:33;29.50;99.90
25328;DHT22;13279;51.300;12.394;2023-08-24T12:29:02;29.70;99.90
25328;DHT22;13279;51.300;12.394;2023-08-24T12:31:30;30.00;99.90
25328;DHT22;13279;51.300;12.394;2023-08-24T12:34:00;30.30;99.90
25328;DHT22;13279;51.300;12.394;2023-08-24T12:36:27;30.50;99.90
25328;DHT22;13279;51.300;12.394;2023-08-24T12:38:57;30.50;99.90
25328;DHT22;13279;51.300;12.394;2023-08-24T12:41:25;30.30;99.90
25328;DHT22;13279;51.300;12.394;2023-08-24T12:43:52;30.40;99.90
25328;DHT22;13279;51.300;12.394;2023-08-24T12:46:19;30.60;99.90
25328;DHT22;13279;51.300;12.394;2023-08-24T12:48:47;31.00;99.90
25328;DHT22;13279;51.300;12.394;2023-08-24T12:51:14;31.00;99.90
25328;DHT22;13279;51.300;12.394;2023-08-24T12:53:41;31.20;99.90
25328;DHT22;13279;51.300;12.394;2023-08-24T12:56:10;31.40;99.90
25328;DHT22;13279;51.300;12.394;2023-08-24T12:58:38;31.40;99.90
25328;DHT22;13279;51.300;12.394;2023-08-24T13:01:05;31.60;99.90
25328;DHT22;13279;51.300;12.394;2023-08-24T13:03:33;31.50;99.90
25328;DHT22;13279;51.300;12.394;2023-08-24T13:06:01;31.40;99.90
25328;DHT22;13279;51.300;12.394;2023-08-24T13:08:30;31.70;99.90
25328;DHT22;13279;51.300;12.394;2023-08-24T13:10:58;32.10;99.90
25328;DHT22;13279;51.300;12.394;2023-08-24T13:13:26;32.20;99.90
25328;DHT22;13279;51.300;12.394;2023-08-24T13:15:54;32.20;99.90
25328;DHT22;13279;51.300;12.394;2023-08-24T13:18:22;31.90;99.90
25328;DHT22;13279;51.300;12.394;2023-08-24T13:20:49;32.20;99.90
25328;DHT22;13279;51.300;12.394;2023-08-24T13:23:16;32.50;99.90
25328;DHT22;13279;51.300;12.394;2023-08-24T13:25:44;32.70;99.90
25328;DHT22;13279;51.300;12.394;2023-08-24T13:28:11;32.80;99.90
25328;DHT22;13279;51.300;12.394;2023-08-24T13:30:40;32.70;99.90
25328;DHT22;13279;51.300;12.394;2023-08-24T13:33:08;32.30;99.90
25328;DHT22;13279;51.300;12.394;2023-08-24T13:35:35;32.30;99.90
25328;DHT22;13279;51.300;12.394;2023-08-24T13:38:03;32.60;99.90
25328;DHT22;13279;51.300;12.394;2023-08-24T13:40:31;32.90;99.90
25328;DHT22;13279;51.300;12.394;2023-08-24T13:42:58;33.30;99.90
25328;DHT22;13279;51.300;12.394;2023-08-24T13:45:26;33.00;99.60
25328;DHT22;13279;51.300;12.394;2023-08-24T13:47:58;32.60;99.00
25328;DHT22;13279;51.300;12.394;2023-08-24T13:50:26;32.30;99.40
25328;DHT22;13279;51.300;12.394;2023-08-24T13:52:53;32.40;99.30
25328;DHT22;13279;51.300;12.394;2023-08-24T13:55:22;32.70;99.30
25328;DHT22;13279;51.300;12.394;2023-08-24T13:57:49;33.20;98.80
25328;DHT22;13279;51.300;12.394;2023-08-24T14:00:17;33.70;97.50
25328;DHT22;13279;51.300;12.394;2023-08-24T14:02:45;34.00;96.80
25328;DHT22;13279;51.300;12.394;2023-08-24T14:05:15;33.90;96.40
25328;DHT22;13279;51.300;12.394;2023-08-24T14:07:42;34.00;96.60
25328;DHT22;13279;51.300;12.394;2023-08-24T14:10:10;34.00;94.40
25328;DHT22;13279;51.300;12.394;2023-08-24T14:12:37;33.90;93.70
25328;DHT22;13279;51.300;12.394;2023-08-24T14:15:05;34.00;93.60
25328;DHT22;13279;51.300;12.394;2023-08-24T14:17:33;34.20;93.40
25328;DHT22;13279;51.300;12.394;2023-08-24T14:20:00;34.40;92.40
25328;DHT22;13279;51.300;12.394;2023-08-24T14:22:31;34.30;92.30
25328;DHT22;13279;51.300;12.394;2023-08-24T14:24:58;34.50;91.90
25328;DHT22;13279;51.300;12.394;2023-08-24T14:27:25;35.00;91.50
25328;DHT22;13279;51.300;12.394;2023-08-24T14:29:53;35.10;89.80
25328;DHT22;13279;51.300;12.394;2023-08-24T14:32:20;35.00;88.90
25328;DHT22;13279;51.300;12.394;2023-08-24T14:34:48;35.20;89.10
25328;DHT22;13279;51.300;12.394;2023-08-24T14:37:16;35.50;87.10
25328;DHT22;13279;51.300;12.394;2023-08-24T14:39:44;35.80;86.30
25328;DHT22;13279;51.300;12.394;2023-08-24T14:42:11;36.10;82.80
25328;DHT22;13279;51.300;12.394;2023-08-24T14:44:39;35.60;82.80
25328;DHT22;13279;51.300;12.394;2023-08-24T14:47:06;35.00;84.30
25328;DHT22;13279;51.300;12.394;2023-08-24T14:49:34;35.10;80.90
25328;DHT22;13279;51.300;12.394;2023-08-24T14:52:02;34.70;80.70
25328;DHT22;13279;51.300;12.394;2023-08-24T14:54:29;34.50;84.60
25328;DHT22;13279;51.300;12.394;2023-08-24T14:56:58;34.60;80.90
25328;DHT22;13279;51.300;12.394;2023-08-24T14:59:26;34.70;79.60
25328;DHT22;13279;51.300;12.394;2023-08-24T15:01:53;35.00;80.30
25328;DHT22;13279;51.300;12.394;2023-08-24T15:04:26;34.90;79.30
25328;DHT22;13279;51.300;12.394;2023-08-24T15:06:54;34.70;80.30
25328;DHT22;13279;51.300;12.394;2023-08-24T15:09:21;35.20;79.30
25328;DHT22;13279;51.300;12.394;2023-08-24T15:11:49;35.10;78.00
25328;DHT22;13279;51.300;12.394;2023-08-24T15:14:17;34.80;78.10
25328;DHT22;13279;51.300;12.394;2023-08-24T15:16:45;34.70;78.30
25328;DHT22;13279;51.300;12.394;2023-08-24T15:19:12;34.30;79.70
25328;DHT22;13279;51.300;12.394;2023-08-24T15:21:39;34.30;78.90
25328;DHT22;13279;51.300;12.394;2023-08-24T15:24:07;34.20;78.40
25328;DHT22;13279;51.300;12.394;2023-08-24T15:26:34;33.60;80.00
25328;DHT22;13279;51.300;12.394;2023-08-24T15:29:10;32.90;81.10
25328;DHT22;13279;51.300;12.394;2023-08-24T15:31:40;32.30;81.40